Terminal Aerodrome Forecast
Issued by NWS

Home | Current Version | Previous Version | Graphics & Text | Print | Product List | Glossary On
Versions: 1 2 3 4 5 6 7 8 9 10 11 12 13 14 15 16 17 18 19 20 21 22 23 24 25 26
296
FTUS45 KGGW 222329
TAFGDV
TAF
KGDV 222329Z 2300/2324 35009KT 6SM -SHSN OVC015
     FM230500 VRB06KT P6SM SCT018 OVC025
     FM231500 05007KT 5SM BR OVC010
     FM231900 06009KT P6SM BKN020
     FM232200 05010KT 5SM BR BKN035=

USA.gov is the U.S. government's official web portal to all federal, state and local government web resources and services.